Airports Norway Molde Airport

Molde Airport (ENML / MOL)

Facts about Molde Airport

Name Molde Airport
City Molde
Country Norway
ICAO code ENML
IATA code MOL
Elevation 3.0480 meters (10 feet)

Weather

METAR

Metar data retrieved Saturday, 20 July 2024 at 00:25 UTC (2 minutes ago)

ENML 192350Z AUTO 01005KT 9999NDV FEW066/// OVC092/// 17/15 Q1015

Live traffic

Navigraph Charts (account required)